KSPF/SPF METAR and TAF weather

Enter ICAO airport designator
Station Type Date Time Source
KSPF METAR 2021/01/20 22:35 UTC NOAA

KSPF 202235Z AUTO 31008G16KT 10SM CLR 04/M10 A2985 RMK AO2 PWINO


Station Type Date Time Source
KSPF Decoded METAR 2021/01/20 22:35 UTC NOAA

Spearfish / Clyde Ice, SD, United States (KSPF) 44-29N 103-47W
Jan 20, 2021 - 05:35 PM EST / 2021.01.20 2235 UTC
Wind: from the NW (310 degrees) at 9 MPH (8 KT) gusting to 18 MPH (16 KT):0
Visibility: 10 mile(s):0
Sky conditions: clear
Temperature: 39 F (4 C)
Dew Point: 14 F (-10 C)
Relative Humidity: 35%
Pressure (altimeter): 29.85 in. Hg (1010 hPa)
ob: KSPF 202235Z AUTO 31008G16KT 10SM CLR 04/M10 A2985 RMK AO2 PWINO
cycle: 22

Station Type Date Time Source
KSPF TAF UTC NOAA

Error!

Example: see airport list